createdAt,value
2022-08-09T00:00:19.934Z,57.92236328
2022-08-09T00:01:21.506Z,58.02001953
2022-08-09T00:02:22.103Z,58.02001953
2022-08-09T00:04:05.644Z,58.22143555
2022-08-09T00:04:34.632Z,58.3190918
2022-08-09T00:06:17.860Z,58.34960938
2022-08-09T00:06:57.057Z,58.44726563
2022-08-09T00:08:01.318Z,58.34960938
2022-08-09T00:08:58.681Z,58.44726563
2022-08-09T00:09:59.485Z,58.24584961
2022-08-09T00:11:01.006Z,58.55102539
2022-08-09T00:12:04.482Z,58.64868164
2022-08-09T00:13:02.517Z,59.14916992
2022-08-09T00:14:03.277Z,59.35058594
2022-08-09T00:15:06.515Z,59.55200195
2022-08-09T00:16:04.839Z,59.85107422
2022-08-09T00:17:05.531Z,59.85107422
2022-08-09T00:18:11.521Z,59.24682617
2022-08-09T00:19:09.519Z,58.94775391
2022-08-09T00:20:08.569Z,58.74633789
2022-08-09T00:21:10.010Z,58.64868164
2022-08-09T00:22:11.349Z,58.94775391
2022-08-09T00:23:54.930Z,59.05151367
2022-08-09T00:24:12.557Z,59.35058594
2022-08-09T00:25:13.382Z,59.6496582
2022-08-09T00:26:14.584Z,60.05249023
2022-08-09T00:27:15.226Z,60.24780273
2022-08-09T00:28:16.109Z,60.3515625
2022-08-09T00:29:39.570Z,60.05249023
2022-08-09T00:30:26.211Z,60.15014648
2022-08-09T00:31:56.827Z,60.15014648
2022-08-09T00:32:27.056Z,60.3515625
2022-08-09T00:33:32.647Z,60.55297852
2022-08-09T00:34:22.139Z,60.65063477
2022-08-09T00:35:22.927Z,60.44921875
2022-08-09T00:36:55.095Z,60.24780273
2022-08-09T00:37:55.923Z,60.05249023
2022-08-09T00:38:56.777Z,60.05249023
2022-08-09T00:40:12.230Z,60.05249023
2022-08-09T00:40:59.144Z,60.05249023
2022-08-09T00:44:09.817Z,59.94873047
2022-08-09T00:44:10.392Z,60.05249023
2022-08-09T00:44:13.639Z,60.15014648
2022-08-09T00:45:03.729Z,59.85107422
2022-08-09T00:46:02.967Z,60.05249023
2022-08-09T00:47:05.570Z,59.72290039
2022-08-09T00:48:04.482Z,59.74731445
2022-08-09T00:49:05.333Z,60.05249023
2022-08-09T00:50:06.968Z,60.15014648
2022-08-09T00:51:11.819Z,60.15014648
2022-08-09T00:52:17.508Z,60.65063477
2022-08-09T00:53:10.223Z,60.74829102
2022-08-09T00:54:10.900Z,60.55297852
2022-08-09T00:55:16.748Z,60.55297852
2022-08-09T00:56:12.409Z,60.44921875
2022-08-09T00:57:14.051Z,60.65063477
2022-08-09T00:58:22.146Z,60.3515625
2022-08-09T00:59:15.687Z,60.15014648
2022-08-09T01:00:22.049Z,60.55297852
2022-08-09T01:01:18.046Z,59.94873047
2022-08-09T01:02:18.724Z,59.94873047
2022-08-09T01:03:19.533Z,59.6496582
2022-08-09T01:04:20.389Z,59.55200195
2022-08-09T01:05:21.790Z,59.74731445
2022-08-09T01:06:21.810Z,59.94873047
2022-08-09T01:07:37.790Z,60.05249023
2022-08-09T01:08:26.927Z,60.18066406
2022-08-09T01:09:55.580Z,60.27832031
2022-08-09T01:10:56.277Z,60.57739258
2022-08-09T01:11:57.892Z,60.88256836
2022-08-09T01:12:58.722Z,61.07788086
2022-08-09T01:14:01.683Z,60.47973633
2022-08-09T01:15:01.057Z,60.57739258
2022-08-09T01:16:01.196Z,60.57739258
2022-08-09T01:17:01.901Z,60.98022461
2022-08-09T01:18:02.809Z,61.07788086
2022-08-09T01:19:04.744Z,60.77880859
2022-08-09T01:20:04.562Z,61.18164063
2022-08-09T01:21:06.047Z,61.07788086
2022-08-09T01:22:06.762Z,60.98022461
2022-08-09T01:24:00.503Z,61.07788086
2022-08-09T01:24:08.358Z,60.57739258
2022-08-09T01:25:09.203Z,60.57739258
2022-08-09T01:26:09.891Z,60.47973633
2022-08-09T01:27:10.620Z,60.68115234
2022-08-09T01:28:11.641Z,60.88256836
2022-08-09T01:29:12.523Z,60.88256836
2022-08-09T01:30:28.644Z,60.88256836
2022-08-09T01:32:28.154Z,60.88256836
2022-08-09T01:32:31.113Z,60.98022461
2022-08-09T01:33:16.583Z,61.18164063
2022-08-09T01:34:17.420Z,61.27929688
2022-08-09T01:35:37.723Z,61.18164063
2022-08-09T01:36:18.959Z,61.38305664
2022-08-09T01:37:42.827Z,61.57836914
2022-08-09T01:38:23.467Z,61.38305664
2022-08-09T01:39:23.212Z,61.38305664
2022-08-09T01:40:28.411Z,61.27929688
2022-08-09T01:41:59.855Z,61.48071289
2022-08-09T01:42:56.252Z,61.68212891
2022-08-09T01:43:57.128Z,61.88354492
2022-08-09T01:44:57.929Z,61.88354492
2022-08-09T01:45:59.552Z,61.57836914
2022-08-09T01:47:00.219Z,61.48071289
2022-08-09T01:48:01.015Z,61.68212891
2022-08-09T01:49:10.368Z,61.98120117
2022-08-09T01:50:02.625Z,61.98120117
2022-08-09T01:51:03.398Z,61.88354492
2022-08-09T01:52:07.048Z,61.88354492
2022-08-09T01:53:19.141Z,61.77978516
2022-08-09T01:54:06.583Z,61.88354492
2022-08-09T01:55:07.390Z,62.07885742
2022-08-09T01:56:08.149Z,62.07885742
2022-08-09T01:57:08.887Z,62.28027344
2022-08-09T01:58:09.672Z,62.48168945
2022-08-09T01:59:10.562Z,62.48168945
2022-08-09T02:00:34.733Z,62.28027344
2022-08-09T02:01:18.090Z,62.18261719
2022-08-09T02:02:13.962Z,62.07885742
2022-08-09T02:03:14.752Z,62.109375
2022-08-09T02:04:15.559Z,62.40844727
2022-08-09T02:05:16.333Z,62.51220703
2022-08-09T02:06:17.042Z,62.91503906
2022-08-09T02:08:38.807Z,63.01269531
2022-08-09T02:08:41.401Z,62.91503906
2022-08-09T02:09:20.206Z,63.01269531
2022-08-09T02:10:29.710Z,63.21411133
2022-08-09T02:11:22.590Z,63.31176758
2022-08-09T02:12:54.268Z,63.21411133
2022-08-09T02:13:55.224Z,63.11035156
2022-08-09T02:14:55.914Z,63.11035156
2022-08-09T02:15:56.714Z,63.21411133
2022-08-09T02:16:59.683Z,63.31176758
2022-08-09T02:18:09.616Z,63.11035156
2022-08-09T02:18:59.223Z,62.91503906
2022-08-09T02:20:01.211Z,63.14086914
2022-08-09T02:21:01.304Z,63.34228516
2022-08-09T02:22:02.991Z,63.34228516
2022-08-09T02:23:03.777Z,63.34228516
2022-08-09T02:24:04.952Z,63.44604492
2022-08-09T02:25:06.783Z,63.24462891
2022-08-09T02:26:06.407Z,63.34228516
2022-08-09T02:27:07.261Z,63.34228516
2022-08-09T02:28:09.608Z,63.44604492
2022-08-09T02:29:08.870Z,63.24462891
2022-08-09T02:30:09.603Z,63.24462891
2022-08-09T02:31:10.298Z,63.14086914
2022-08-09T02:32:11.970Z,63.34228516
2022-08-09T02:33:14.255Z,63.34228516
2022-08-09T02:34:40.961Z,63.54370117
2022-08-09T02:35:17.270Z,63.64135742
2022-08-09T02:36:14.989Z,63.74511719
2022-08-09T02:37:16.673Z,63.54370117
2022-08-09T02:38:22.133Z,63.54370117
2022-08-09T02:39:20.023Z,63.64135742
2022-08-09T02:40:26.958Z,63.9465332
2022-08-09T02:41:20.573Z,63.9465332
2022-08-09T02:42:24.902Z,64.14794922
2022-08-09T02:43:23.090Z,64.34326172
2022-08-09T02:44:54.309Z,64.24560547
2022-08-09T02:45:55.064Z,64.14794922
2022-08-09T02:46:56.479Z,64.14794922
2022-08-09T02:47:59.546Z,64.14794922
2022-08-09T02:48:58.240Z,63.9465332
2022-08-09T02:50:01.767Z,64.04418945
2022-08-09T02:51:02.402Z,63.9465332
2022-08-09T02:52:01.375Z,63.9465332
2022-08-09T02:53:03.743Z,64.04418945
2022-08-09T02:54:03.903Z,64.3737793
2022-08-09T02:55:19.926Z,64.57519531
2022-08-09T02:56:05.387Z,64.47753906
2022-08-09T02:57:13.912Z,64.3737793
2022-08-09T02:58:32.511Z,64.3737793
2022-08-09T02:59:07.970Z,64.47753906
2022-08-09T03:00:21.035Z,64.77661133
2022-08-09T03:01:11.066Z,64.57519531
2022-08-09T03:02:12.128Z,64.57519531
2022-08-09T03:03:11.957Z,64.67895508
2022-08-09T03:04:19.369Z,64.57519531
2022-08-09T03:05:16.694Z,64.3737793
2022-08-09T03:06:15.154Z,64.27612305
2022-08-09T03:07:15.843Z,64.47753906
2022-08-09T03:08:16.704Z,64.57519531
2022-08-09T03:09:17.748Z,64.47753906
2022-08-09T03:10:18.237Z,64.3737793
2022-08-09T03:11:29.672Z,64.47753906
2022-08-09T03:12:20.515Z,64.47753906
2022-08-09T03:13:21.393Z,64.57519531
2022-08-09T03:14:28.347Z,65.17944336
2022-08-09T03:16:06.234Z,65.38085938
2022-08-09T03:16:54.546Z,65.47851563
2022-08-09T03:17:58.745Z,65.38085938
2022-08-09T03:18:56.307Z,64.97802734
2022-08-09T03:20:00.366Z,64.97802734
2022-08-09T03:20:57.826Z,64.88037109
2022-08-09T03:21:59.636Z,64.57519531
2022-08-09T03:23:14.918Z,64.67895508
2022-08-09T03:24:04.428Z,64.97802734
2022-08-09T03:25:20.935Z,65.30761719
2022-08-09T03:26:04.817Z,65.41137695
2022-08-09T03:27:03.590Z,65.5090332
2022-08-09T03:28:04.437Z,65.5090332
2022-08-09T03:29:09.624Z,65.61279297
2022-08-09T03:30:07.610Z,65.61279297
2022-08-09T03:31:21.121Z,65.61279297
2022-08-09T03:32:08.426Z,65.81420898
2022-08-09T03:33:17.732Z,65.81420898
2022-08-09T03:34:09.862Z,65.5090332
2022-08-09T03:35:15.074Z,65.41137695
2022-08-09T03:36:16.551Z,65.47851563
2022-08-09T03:37:54.713Z,65.47851563
2022-08-09T03:38:16.104Z,65.38085938
2022-08-09T03:39:15.058Z,65.20996094
2022-08-09T03:40:17.989Z,65.5090332
2022-08-09T03:41:18.428Z,65.5090332
2022-08-09T03:42:19.302Z,65.71044922
2022-08-09T03:43:18.983Z,65.71044922
2022-08-09T03:44:19.862Z,65.5090332
2022-08-09T03:46:04.228Z,65.30761719
2022-08-09T03:46:27.396Z,65.41137695
2022-08-09T03:47:52.775Z,65.41137695
2022-08-09T03:48:53.753Z,65.5090332
2022-08-09T03:49:58.922Z,65.20996094
2022-08-09T03:50:56.843Z,65.5090332
2022-08-09T03:52:00.153Z,65.71044922
2022-08-09T03:52:58.430Z,65.81420898
2022-08-09T03:53:59.746Z,65.61279297
2022-08-09T03:55:01.133Z,65.41137695
2022-08-09T03:56:01.845Z,65.20996094
2022-08-09T03:57:04.430Z,65.5090332
2022-08-09T03:58:09.969Z,65.5090332
2022-08-09T03:59:04.030Z,65.5090332
2022-08-09T04:00:05.010Z,65.61279297
2022-08-09T04:01:05.815Z,65.41137695
2022-08-09T04:02:07.105Z,65.41137695
2022-08-09T04:03:07.938Z,65.71044922
2022-08-09T04:04:14.471Z,65.91186523
2022-08-09T04:05:18.220Z,65.53955078
2022-08-09T04:06:10.512Z,65.53955078
2022-08-09T04:07:11.589Z,65.94238281
2022-08-09T04:08:13.111Z,66.24145508
2022-08-09T04:09:41.966Z,66.54663086
2022-08-09T04:10:14.836Z,66.64428711
2022-08-09T04:11:15.653Z,66.74804688
2022-08-09T04:12:30.403Z,66.54663086
2022-08-09T04:13:18.505Z,66.44287109
2022-08-09T04:14:53.117Z,66.44287109
2022-08-09T04:15:52.224Z,66.74804688
2022-08-09T04:16:21.500Z,66.64428711
2022-08-09T04:17:21.173Z,66.64428711
2022-08-09T04:18:52.423Z,66.64428711
2022-08-09T04:19:56.161Z,66.64428711
2022-08-09T04:20:54.083Z,66.74804688
2022-08-09T04:21:54.816Z,66.74804688
2022-08-09T04:22:56.466Z,66.54663086
2022-08-09T04:23:57.744Z,66.44287109
2022-08-09T04:24:57.931Z,66.44287109
2022-08-09T04:25:58.716Z,66.84570313
2022-08-09T04:26:59.392Z,66.74804688
2022-08-09T04:28:02.649Z,66.64428711
2022-08-09T04:29:05.225Z,66.64428711
2022-08-09T04:30:02.126Z,66.54663086
2022-08-09T04:31:05.758Z,66.54663086
2022-08-09T04:32:03.379Z,66.34521484
2022-08-09T04:33:04.987Z,66.24145508
2022-08-09T04:34:05.698Z,66.24145508
2022-08-09T04:35:08.587Z,66.14379883
2022-08-09T04:36:07.415Z,66.34521484
2022-08-09T04:37:07.967Z,66.74804688
2022-08-09T04:38:09.569Z,66.64428711
2022-08-09T04:39:10.426Z,66.54663086
2022-08-09T04:40:11.628Z,66.64428711
2022-08-09T04:41:12.495Z,66.54663086
2022-08-09T04:42:15.857Z,66.44287109
2022-08-09T04:43:15.181Z,66.34521484
2022-08-09T04:44:15.642Z,66.24145508
2022-08-09T04:45:16.532Z,66.14379883
2022-08-09T04:46:19.348Z,66.04614258
2022-08-09T04:47:18.806Z,66.14379883
2022-08-09T04:48:19.601Z,66.11328125
2022-08-09T04:49:22.208Z,66.00952148
2022-08-09T04:50:21.570Z,66.11328125
2022-08-09T04:51:53.556Z,66.11328125
2022-08-09T04:52:54.932Z,66.11328125
2022-08-09T04:53:58.619Z,66.11328125
2022-08-09T04:54:56.521Z,65.91186523
2022-08-09T04:55:59.813Z,65.81420898
2022-08-09T04:56:58.205Z,65.91186523
2022-08-09T04:58:09.077Z,66.2109375
2022-08-09T04:58:59.734Z,66.2109375
2022-08-09T05:00:00.564Z,66.2109375
2022-08-09T05:01:01.415Z,66.11328125
2022-08-09T05:02:03.016Z,66.2109375
2022-08-09T05:03:30.124Z,66.41235352
2022-08-09T05:04:04.784Z,66.41235352
2022-08-09T05:05:09.941Z,66.2109375
2022-08-09T05:06:07.455Z,66.2109375
2022-08-09T05:07:08.183Z,66.31469727
2022-08-09T05:08:09.007Z,66.2109375
2022-08-09T05:09:09.724Z,66.11328125
2022-08-09T05:10:10.516Z,66.00952148
2022-08-09T05:11:11.785Z,66.11328125
2022-08-09T05:12:12.747Z,66.2109375
2022-08-09T05:13:14.286Z,66.00952148
2022-08-09T05:14:14.817Z,65.91186523
2022-08-09T05:15:24.682Z,65.91186523
2022-08-09T05:16:16.466Z,66.11328125
2022-08-09T05:18:37.907Z,65.91186523
2022-08-09T05:18:50.761Z,65.91186523
2022-08-09T05:19:23.544Z,65.91186523
2022-08-09T05:20:20.639Z,65.91186523
2022-08-09T05:21:55.227Z,65.88134766
2022-08-09T05:23:54.846Z,65.81420898
2022-08-09T05:24:00.064Z,65.91186523
2022-08-09T05:25:00.862Z,65.91186523
2022-08-09T05:25:56.798Z,65.88134766
2022-08-09T05:26:56.916Z,65.77758789
2022-08-09T05:27:57.739Z,65.67993164
2022-08-09T05:28:58.566Z,65.67993164
2022-08-09T05:29:59.436Z,65.67993164
2022-08-09T05:31:00.323Z,65.67993164
2022-08-09T05:32:02.094Z,65.67993164
2022-08-09T05:33:03.640Z,65.67993164
2022-08-09T05:34:04.438Z,65.67993164
2022-08-09T05:35:05.141Z,65.58227539
2022-08-09T05:36:06.008Z,65.44799805
2022-08-09T05:37:11.309Z,65.44799805
2022-08-09T05:38:07.768Z,65.44799805
2022-08-09T05:39:09.668Z,65.64941406
2022-08-09T05:40:10.398Z,65.5456543
2022-08-09T05:41:12.859Z,65.44799805
2022-08-09T05:42:17.826Z,65.3503418
2022-08-09T05:43:14.088Z,65.3503418
2022-08-09T05:44:14.870Z,65.24658203
2022-08-09T05:45:15.698Z,65.24658203
2022-08-09T05:46:16.561Z,65.24658203
2022-08-09T05:47:17.432Z,65.24658203
2022-08-09T05:48:18.369Z,65.14892578
2022-08-09T05:50:24.378Z,65.14892578
2022-08-09T05:50:34.931Z,64.84375
2022-08-09T05:51:51.498Z,64.6484375
2022-08-09T05:52:53.987Z,64.74609375
2022-08-09T05:53:57.883Z,64.84375
2022-08-09T05:54:55.339Z,64.84375
2022-08-09T05:55:55.510Z,64.94750977
2022-08-09T05:56:56.795Z,64.41650391
2022-08-09T05:57:58.408Z,64.41650391
2022-08-09T05:58:58.810Z,64.51416016
2022-08-09T05:59:59.441Z,64.51416016
2022-08-09T06:01:00.180Z,64.21508789
2022-08-09T06:02:01.049Z,64.31274414
2022-08-09T06:03:02.746Z,64.61791992
2022-08-09T06:04:05.442Z,64.51416016
2022-08-09T06:05:04.154Z,64.41650391
2022-08-09T06:06:06.516Z,64.41650391
2022-08-09T06:07:05.679Z,64.21508789
2022-08-09T06:08:07.876Z,64.31274414
2022-08-09T06:09:23.052Z,64.31274414
2022-08-09T06:10:08.904Z,64.21508789
2022-08-09T06:11:17.666Z,64.31274414
2022-08-09T06:12:10.513Z,64.21508789
2022-08-09T06:13:18.689Z,64.11743164
2022-08-09T06:14:12.964Z,63.91601563
2022-08-09T06:15:13.678Z,64.01367188
2022-08-09T06:16:14.431Z,64.41650391
2022-08-09T06:17:15.288Z,64.31274414
2022-08-09T06:18:16.793Z,64.21508789
2022-08-09T06:19:17.013Z,64.51416016
2022-08-09T06:20:18.253Z,64.08691406
2022-08-09T06:21:18.444Z,63.9831543
2022-08-09T06:22:28.725Z,63.88549805
2022-08-09T06:23:21.218Z,64.08691406
2022-08-09T06:24:53.134Z,64.28222656
2022-08-09T06:25:55.404Z,64.28222656
2022-08-09T06:26:54.636Z,63.9831543
2022-08-09T06:27:55.487Z,64.18457031
2022-08-09T06:29:00.260Z,64.08691406
2022-08-09T06:30:04.265Z,63.88549805
2022-08-09T06:30:57.833Z,63.78173828
2022-08-09T06:32:08.794Z,63.88549805
2022-08-09T06:33:30.116Z,63.88549805
2022-08-09T06:34:01.064Z,63.68408203
2022-08-09T06:35:01.912Z,63.58032227
2022-08-09T06:36:02.585Z,63.88549805
2022-08-09T06:37:03.405Z,63.88549805
2022-08-09T06:38:05.889Z,63.78173828
2022-08-09T06:39:09.230Z,63.88549805
2022-08-09T06:40:21.946Z,63.88549805
2022-08-09T06:41:18.216Z,63.78173828
2022-08-09T06:42:11.367Z,63.58032227
2022-08-09T06:43:10.522Z,63.58032227
2022-08-09T06:44:10.480Z,63.58032227
2022-08-09T06:46:05.548Z,63.48266602
2022-08-09T06:46:13.147Z,63.48266602
2022-08-09T06:47:13.110Z,63.48266602
2022-08-09T06:48:16.444Z,63.58032227
2022-08-09T06:49:22.589Z,63.88549805
2022-08-09T06:50:16.704Z,63.58032227
2022-08-09T06:51:16.388Z,63.5559082
2022-08-09T06:52:17.128Z,63.45214844
2022-08-09T06:53:18.692Z,63.25073242
2022-08-09T06:54:20.389Z,63.7512207
2022-08-09T06:55:50.863Z,63.45214844
2022-08-09T06:56:51.532Z,63.5559082
2022-08-09T06:58:02.585Z,63.65356445
2022-08-09T07:00:51.798Z,63.65356445
2022-08-09T07:00:51.800Z,63.65356445
2022-08-09T07:00:58.690Z,63.32397461
2022-08-09T07:01:58.002Z,63.32397461
2022-08-09T07:02:57.776Z,62.92114258
2022-08-09T07:04:03.731Z,62.82348633
2022-08-09T07:05:00.495Z,63.02490234
2022-08-09T07:06:03.833Z,63.02490234
2022-08-09T07:07:05.031Z,62.92114258
2022-08-09T07:08:02.796Z,62.62207031
2022-08-09T07:09:04.163Z,62.52441406
2022-08-09T07:10:18.003Z,62.12158203
2022-08-09T07:11:06.520Z,62.71972656
2022-08-09T07:12:06.427Z,62.71972656
2022-08-09T07:13:28.285Z,62.71972656
2022-08-09T07:14:09.082Z,62.71972656
2022-08-09T07:15:54.014Z,62.4206543
2022-08-09T07:16:42.429Z,62.71972656
2022-08-09T07:17:11.700Z,62.52441406
2022-08-09T07:18:14.294Z,62.52441406
2022-08-09T07:19:15.720Z,62.92114258
2022-08-09T07:20:14.215Z,62.62207031
2022-08-09T07:21:14.949Z,62.62207031
2022-08-09T07:22:15.843Z,62.82348633
2022-08-09T07:23:18.649Z,62.82348633
2022-08-09T07:24:17.977Z,62.32299805
2022-08-09T07:25:18.928Z,62.62207031
2022-08-09T07:26:20.632Z,62.71972656
2022-08-09T07:27:53.498Z,62.71972656
2022-08-09T07:29:09.368Z,63.02490234
2022-08-09T07:29:53.431Z,63.32397461
2022-08-09T07:30:54.164Z,63.22021484
2022-08-09T07:31:54.877Z,63.22021484
2022-08-09T07:32:55.670Z,63.42163086
2022-08-09T07:33:57.069Z,63.02490234
2022-08-09T07:34:57.917Z,63.12255859
2022-08-09T07:35:58.717Z,63.22021484
2022-08-09T07:37:02.620Z,63.12255859
2022-08-09T07:38:00.755Z,62.890625
2022-08-09T07:39:02.405Z,62.39013672
2022-08-09T07:40:03.139Z,62.79296875
2022-08-09T07:41:11.522Z,63.18969727
2022-08-09T07:42:05.041Z,63.18969727
2022-08-09T07:43:06.988Z,62.99438477
2022-08-09T07:44:07.058Z,62.79296875
2022-08-09T07:45:23.125Z,62.49389648
2022-08-09T07:46:08.718Z,62.79296875
2022-08-09T07:47:09.916Z,63.29345703
2022-08-09T07:48:22.505Z,62.890625
2022-08-09T07:49:15.337Z,62.890625
2022-08-09T07:50:12.221Z,62.39013672
2022-08-09T07:52:06.122Z,62.39013672
2022-08-09T07:52:16.643Z,62.59155273
2022-08-09T07:53:14.667Z,62.59155273
2022-08-09T07:54:19.109Z,62.99438477
2022-08-09T07:55:16.942Z,62.49389648
2022-08-09T07:56:26.861Z,62.59155273
2022-08-09T07:57:18.472Z,62.46337891
2022-08-09T07:58:21.590Z,62.26196289
2022-08-09T08:00:03.097Z,62.26196289
2022-08-09T08:00:58.869Z,61.96289063
2022-08-09T08:01:53.117Z,61.66381836
2022-08-09T08:02:53.430Z,61.86523438
2022-08-09T08:03:54.618Z,61.76147461
2022-08-09T08:04:55.313Z,61.86523438
2022-08-09T08:05:58.190Z,62.06054688
2022-08-09T08:07:00.202Z,62.06054688
2022-08-09T08:08:44.450Z,61.96289063
2022-08-09T08:09:03.625Z,61.96289063
2022-08-09T08:10:08.326Z,62.26196289
2022-08-09T08:12:08.631Z,62.06054688
2022-08-09T08:12:11.615Z,61.96289063
2022-08-09T08:13:03.763Z,62.06054688
2022-08-09T08:14:04.836Z,62.26196289
2022-08-09T08:15:04.222Z,62.16430664
2022-08-09T08:16:05.452Z,62.66479492
2022-08-09T08:17:09.109Z,62.03613281
2022-08-09T08:18:06.952Z,61.73095703
2022-08-09T08:19:07.637Z,62.03613281
2022-08-09T08:20:13.277Z,62.23144531
2022-08-09T08:21:09.105Z,61.8347168
2022-08-09T08:22:09.820Z,61.53564453
2022-08-09T08:23:16.919Z,61.23657227
2022-08-09T08:24:16.537Z,61.63330078
2022-08-09T08:25:13.809Z,61.93237305
2022-08-09T08:26:13.467Z,61.63330078
2022-08-09T08:27:17.167Z,61.23657227
2022-08-09T08:28:18.421Z,61.33422852
2022-08-09T08:29:20.112Z,61.30371094
2022-08-09T08:30:17.341Z,61.90185547
2022-08-09T08:31:18.065Z,61.70654297
2022-08-09T08:32:28.699Z,61.30371094
2022-08-09T08:33:53.906Z,60.60791016
2022-08-09T08:34:52.139Z,60.80322266
2022-08-09T08:35:58.630Z,60.80322266
2022-08-09T08:36:53.309Z,60.80322266
2022-08-09T08:37:59.642Z,60.80322266
2022-08-09T08:38:54.860Z,60.90698242
2022-08-09T08:39:56.542Z,60.50415039
2022-08-09T08:40:57.179Z,60.50415039
2022-08-09T08:41:58.908Z,61.30371094
2022-08-09T08:42:58.987Z,61.4074707
2022-08-09T08:44:02.676Z,60.60791016
2022-08-09T08:45:00.867Z,61.10229492
2022-08-09T08:46:09.916Z,61.07788086
2022-08-09T08:47:04.727Z,60.60791016
2022-08-09T08:48:02.961Z,60.67504883
2022-08-09T08:49:03.709Z,60.97412109
2022-08-09T08:50:05.127Z,61.27319336
2022-08-09T08:51:05.812Z,61.27319336
2022-08-09T08:52:10.244Z,60.77880859
2022-08-09T08:53:08.056Z,61.07788086
2022-08-09T08:54:10.107Z,61.07788086
2022-08-09T08:55:09.857Z,60.57739258
2022-08-09T08:56:16.910Z,60.17456055
2022-08-09T08:57:11.858Z,60.67504883
2022-08-09T08:58:12.320Z,59.87548828
2022-08-09T08:59:19.400Z,60.47973633
2022-08-09T09:00:27.182Z,60.77880859
2022-08-09T09:01:20.728Z,60.67504883
2022-08-09T09:02:15.326Z,61.47460938
2022-08-09T09:03:20.739Z,61.54785156
2022-08-09T09:04:17.662Z,60.74829102
2022-08-09T09:05:18.829Z,60.04638672
2022-08-09T09:06:49.936Z,60.15014648
2022-08-09T09:07:50.626Z,60.44921875
2022-08-09T09:08:52.557Z,60.94970703
2022-08-09T09:10:02.027Z,61.94458008
2022-08-09T09:10:53.318Z,60.74829102
2022-08-09T09:11:54.029Z,61.04736328
2022-08-09T09:12:54.720Z,60.71777344
2022-08-09T09:13:58.266Z,60.21728516
2022-08-09T09:14:57.026Z,60.62011719
2022-08-09T09:15:57.710Z,60.21728516
2022-08-09T09:16:58.473Z,59.42382813
2022-08-09T09:17:59.160Z,59.42382813
2022-08-09T09:19:22.555Z,59.61914063
2022-08-09T09:20:01.139Z,59.52148438
2022-08-09T09:21:01.324Z,59.39331055
2022-08-09T09:22:04.220Z,59.39331055
2022-08-09T09:23:02.763Z,58.89282227
2022-08-09T09:24:04.367Z,59.19189453
2022-08-09T09:26:04.330Z,59.99145508
2022-08-09T09:26:12.406Z,60.08911133
2022-08-09T09:27:06.426Z,60.08911133
2022-08-09T09:28:08.073Z,59.89379883
2022-08-09T09:29:11.143Z,58.49609375
2022-08-09T09:30:15.790Z,59.09423828
2022-08-09T09:31:17.129Z,59.19189453
2022-08-09T09:32:15.574Z,59.19189453
2022-08-09T09:33:15.472Z,59.16748047
2022-08-09T09:34:14.232Z,59.0637207
2022-08-09T09:35:16.016Z,58.06884766
2022-08-09T09:36:20.914Z,57.87353516
2022-08-09T09:37:14.754Z,57.76977539
2022-08-09T09:38:27.572Z,57.57446289
2022-08-09T09:39:16.267Z,57.87353516
2022-08-09T09:40:17.955Z,58.17260742
2022-08-09T09:41:51.056Z,58.17260742
2022-08-09T09:42:49.720Z,58.27026367
2022-08-09T09:44:12.793Z,57.87353516
2022-08-09T09:44:51.988Z,57.57446289
2022-08-09T09:46:38.970Z,57.87353516
2022-08-09T09:46:54.003Z,57.57446289
2022-08-09T09:47:56.417Z,57.57446289
2022-08-09T09:48:55.471Z,57.27539063
2022-08-09T09:50:14.900Z,57.87353516
2022-08-09T09:50:56.956Z,57.57446289
2022-08-09T09:51:57.673Z,57.34863281
2022-08-09T09:52:58.604Z,56.75048828
2022-08-09T09:54:01.329Z,57.24487305
2022-08-09T09:55:00.629Z,56.94580078
2022-08-09T09:56:05.473Z,56.84814453
2022-08-09T09:58:01.050Z,56.45141602
2022-08-09T09:58:17.119Z,56.84814453
2022-08-09T09:59:03.535Z,57.44628906
2022-08-09T10:00:05.025Z,56.94580078
2022-08-09T10:01:05.750Z,56.25
2022-08-09T10:02:06.415Z,56.25
2022-08-09T10:03:09.095Z,55.95092773
2022-08-09T10:04:09.467Z,55.85327148
2022-08-09T10:05:09.487Z,56.45141602
2022-08-09T10:06:10.234Z,55.92651367
2022-08-09T10:07:11.733Z,55.72509766
2022-08-09T10:08:27.755Z,55.52978516
2022-08-09T10:09:22.574Z,56.02416992
2022-08-09T10:10:13.837Z,56.5246582
2022-08-09T10:11:53.839Z,56.7199707
2022-08-09T10:12:28.445Z,55.52978516
2022-08-09T10:13:24.795Z,55.12695313
2022-08-09T10:14:17.448Z,54.63256836
2022-08-09T10:16:08.859Z,54.63256836
2022-08-09T10:16:58.496Z,55.02929688
2022-08-09T10:17:56.455Z,55.02929688
2022-08-09T10:18:54.220Z,55.02929688
2022-08-09T10:19:56.845Z,55.20019531
2022-08-09T10:20:53.531Z,55.10253906
2022-08-09T10:21:54.233Z,54.30908203
2022-08-09T10:23:00.456Z,54.30908203
2022-08-09T10:23:55.542Z,54.50439453
2022-08-09T10:24:56.966Z,53.80859375
2022-08-09T10:26:06.266Z,54.30908203
2022-08-09T10:26:59.184Z,54.70581055
2022-08-09T10:27:59.856Z,54.50439453
2022-08-09T10:29:36.111Z,53.80859375
2022-08-09T10:30:49.467Z,54.01000977
2022-08-09T10:33:04.339Z,54.30908203
2022-08-09T10:34:11.492Z,53.31420898
2022-08-09T10:35:06.486Z,53.11279297
2022-08-09T10:36:11.481Z,53.61328125
2022-08-09T10:37:09.857Z,53.7109375
2022-08-09T10:38:41.731Z,53.41186523
2022-08-09T10:39:13.943Z,53.21044922
2022-08-09T10:40:12.203Z,53.68652344
2022-08-09T10:41:11.794Z,53.88183594
2022-08-09T10:42:12.563Z,52.88696289
2022-08-09T10:43:13.211Z,53.38745117
2022-08-09T10:44:13.893Z,53.08837891
2022-08-09T10:45:15.936Z,52.69165039
2022-08-09T10:46:20.080Z,53.08837891
2022-08-09T10:48:12.541Z,53.48510742
2022-08-09T10:48:48.224Z,53.58276367
2022-08-09T10:49:51.321Z,53.88183594
2022-08-09T10:50:50.502Z,53.68652344
2022-08-09T10:51:52.791Z,53.16162109
2022-08-09T10:52:52.063Z,53.36303711
2022-08-09T10:53:54.780Z,53.16162109
2022-08-09T10:54:54.184Z,53.85742188
2022-08-09T10:56:00.051Z,53.36303711
2022-08-09T10:56:55.656Z,53.25927734
2022-08-09T10:58:00.147Z,52.2644043
2022-08-09T10:58:57.379Z,51.77001953
2022-08-09T10:59:58.568Z,52.34375
2022-08-09T11:03:02.630Z,51.84326172
2022-08-09T11:03:11.547Z,52.14233398
2022-08-09T11:03:17.996Z,52.04467773
2022-08-09T11:04:03.600Z,51.14746094
2022-08-09T11:05:04.358Z,51.54418945
2022-08-09T11:06:04.422Z,51.74560547
2022-08-09T11:07:05.015Z,51.14746094
2022-08-09T11:08:05.884Z,51.04980469
2022-08-09T11:09:15.433Z,50.85449219
2022-08-09T11:10:07.568Z,51.14746094
2022-08-09T11:11:08.825Z,51.84326172
2022-08-09T11:12:08.910Z,51.2512207